sensor_id;sensor_type;location;lat;lon;timestamp;P1;durP1;ratioP1;P2;durP2;ratioP2
57573;SDS011;68988;49.000;21.242;2024-01-10T00:01:54;3.70;;;3.50;;
57573;SDS011;68988;49.000;21.242;2024-01-10T00:04:20;4.00;;;3.70;;
57573;SDS011;68988;49.000;21.242;2024-01-10T00:06:45;4.32;;;3.92;;
57573;SDS011;68988;49.000;21.242;2024-01-10T00:09:11;3.40;;;3.20;;
57573;SDS011;68988;49.000;21.242;2024-01-10T00:11:36;3.85;;;3.65;;
57573;SDS011;68988;49.000;21.242;2024-01-10T00:14:01;4.00;;;3.80;;
57573;SDS011;68988;49.000;21.242;2024-01-10T00:16:28;3.65;;;3.45;;
57573;SDS011;68988;49.000;21.242;2024-01-10T00:18:53;4.00;;;3.70;;
57573;SDS011;68988;49.000;21.242;2024-01-10T00:21:19;3.50;;;3.30;;
57573;SDS011;68988;49.000;21.242;2024-01-10T00:23:44;4.03;;;3.83;;
57573;SDS011;68988;49.000;21.242;2024-01-10T00:26:10;4.35;;;3.88;;
57573;SDS011;68988;49.000;21.242;2024-01-10T00:28:35;4.43;;;4.22;;
57573;SDS011;68988;49.000;21.242;2024-01-10T00:31:00;3.78;;;3.58;;
57573;SDS011;68988;49.000;21.242;2024-01-10T00:33:26;3.80;;;3.60;;
57573;SDS011;68988;49.000;21.242;2024-01-10T00:35:51;4.28;;;3.95;;
57573;SDS011;68988;49.000;21.242;2024-01-10T00:38:16;4.68;;;4.30;;
57573;SDS011;68988;49.000;21.242;2024-01-10T00:40:42;4.35;;;4.07;;
57573;SDS011;68988;49.000;21.242;2024-01-10T00:43:07;4.57;;;4.18;;
57573;SDS011;68988;49.000;21.242;2024-01-10T00:45:32;4.35;;;4.00;;
57573;SDS011;68988;49.000;21.242;2024-01-10T00:47:58;4.18;;;3.97;;
57573;SDS011;68988;49.000;21.242;2024-01-10T00:50:23;4.50;;;4.20;;
57573;SDS011;68988;49.000;21.242;2024-01-10T00:55:48;4.47;;;4.18;;
57573;SDS011;68988;49.000;21.242;2024-01-10T00:58:13;4.38;;;4.18;;
57573;SDS011;68988;49.000;21.242;2024-01-10T01:00:39;4.32;;;3.95;;
57573;SDS011;68988;49.000;21.242;2024-01-10T01:03:05;4.18;;;3.88;;
57573;SDS011;68988;49.000;21.242;2024-01-10T01:05:31;4.22;;;4.00;;
57573;SDS011;68988;49.000;21.242;2024-01-10T01:07:56;4.10;;;3.90;;
57573;SDS011;68988;49.000;21.242;2024-01-10T01:10:22;4.80;;;4.50;;
57573;SDS011;68988;49.000;21.242;2024-01-10T01:12:47;4.60;;;4.30;;
57573;SDS011;68988;49.000;21.242;2024-01-10T01:15:13;3.75;;;3.55;;
57573;SDS011;68988;49.000;21.242;2024-01-10T01:17:38;4.28;;;4.07;;
57573;SDS011;68988;49.000;21.242;2024-01-10T01:20:04;4.22;;;4.03;;
57573;SDS011;68988;49.000;21.242;2024-01-10T01:22:30;4.15;;;3.95;;
57573;SDS011;68988;49.000;21.242;2024-01-10T01:24:58;4.70;;;4.22;;
57573;SDS011;68988;49.000;21.242;2024-01-10T01:27:24;4.80;;;4.40;;
57573;SDS011;68988;49.000;21.242;2024-01-10T01:29:49;4.97;;;4.40;;
57573;SDS011;68988;49.000;21.242;2024-01-10T01:32:15;4.53;;;4.22;;
57573;SDS011;68988;49.000;21.242;2024-01-10T01:34:40;4.80;;;4.50;;
57573;SDS011;68988;49.000;21.242;2024-01-10T01:37:05;4.50;;;4.20;;
57573;SDS011;68988;49.000;21.242;2024-01-10T01:39:31;4.38;;;4.07;;
57573;SDS011;68988;49.000;21.242;2024-01-10T01:41:56;4.60;;;4.30;;
57573;SDS011;68988;49.000;21.242;2024-01-10T01:44:22;4.18;;;3.97;;
57573;SDS011;68988;49.000;21.242;2024-01-10T01:46:47;4.70;;;4.40;;
57573;SDS011;68988;49.000;21.242;2024-01-10T01:49:13;4.45;;;4.15;;
57573;SDS011;68988;49.000;21.242;2024-01-10T01:51:39;4.88;;;4.57;;
57573;SDS011;68988;49.000;21.242;2024-01-10T01:54:06;4.82;;;4.53;;
57573;SDS011;68988;49.000;21.242;2024-01-10T01:59:57;4.47;;;4.28;;
57573;SDS011;68988;49.000;21.242;2024-01-10T02:02:24;4.38;;;4.07;;
57573;SDS011;68988;49.000;21.242;2024-01-10T02:04:49;4.35;;;4.13;;
57573;SDS011;68988;49.000;21.242;2024-01-10T02:07:15;4.75;;;4.45;;
57573;SDS011;68988;49.000;21.242;2024-01-10T02:09:41;4.75;;;4.45;;
57573;SDS011;68988;49.000;21.242;2024-01-10T02:12:06;4.55;;;4.35;;
57573;SDS011;68988;49.000;21.242;2024-01-10T02:14:32;5.07;;;4.72;;
57573;SDS011;68988;49.000;21.242;2024-01-10T02:16:57;4.60;;;4.30;;
57573;SDS011;68988;49.000;21.242;2024-01-10T02:19:23;4.43;;;4.15;;
57573;SDS011;68988;49.000;21.242;2024-01-10T02:21:49;4.70;;;4.40;;
57573;SDS011;68988;49.000;21.242;2024-01-10T02:24:14;4.70;;;4.40;;
57573;SDS011;68988;49.000;21.242;2024-01-10T02:26:40;4.70;;;4.40;;
57573;SDS011;68988;49.000;21.242;2024-01-10T02:29:06;5.22;;;4.93;;
57573;SDS011;68988;49.000;21.242;2024-01-10T02:31:32;4.80;;;4.50;;
57573;SDS011;68988;49.000;21.242;2024-01-10T02:33:57;4.53;;;4.32;;
57573;SDS011;68988;49.000;21.242;2024-01-10T02:36:23;4.97;;;4.68;;
57573;SDS011;68988;49.000;21.242;2024-01-10T02:38:48;5.88;;;4.63;;
57573;SDS011;68988;49.000;21.242;2024-01-10T02:41:15;4.80;;;4.60;;
57573;SDS011;68988;49.000;21.242;2024-01-10T02:43:40;5.25;;;4.90;;
57573;SDS011;68988;49.000;21.242;2024-01-10T02:46:05;4.60;;;4.40;;
57573;SDS011;68988;49.000;21.242;2024-01-10T02:48:31;4.90;;;4.60;;
57573;SDS011;68988;49.000;21.242;2024-01-10T02:50:56;4.85;;;4.55;;
57573;SDS011;68988;49.000;21.242;2024-01-10T02:53:21;4.90;;;4.50;;
57573;SDS011;68988;49.000;21.242;2024-01-10T02:55:47;4.88;;;4.57;;
57573;SDS011;68988;49.000;21.242;2024-01-10T02:58:15;4.60;;;4.30;;
57573;SDS011;68988;49.000;21.242;2024-01-10T03:00:40;4.95;;;4.63;;
57573;SDS011;68988;49.000;21.242;2024-01-10T03:03:05;5.00;;;4.70;;
57573;SDS011;68988;49.000;21.242;2024-01-10T03:05:31;5.00;;;4.72;;
57573;SDS011;68988;49.000;21.242;2024-01-10T03:07:56;4.50;;;4.30;;
57573;SDS011;68988;49.000;21.242;2024-01-10T03:10:21;4.60;;;4.40;;
57573;SDS011;68988;49.000;21.242;2024-01-10T03:12:47;4.90;;;4.60;;
57573;SDS011;68988;49.000;21.242;2024-01-10T03:15:12;5.30;;;5.00;;
57573;SDS011;68988;49.000;21.242;2024-01-10T03:17:37;5.40;;;5.10;;
57573;SDS011;68988;49.000;21.242;2024-01-10T03:20:03;4.93;;;4.63;;
57573;SDS011;68988;49.000;21.242;2024-01-10T03:22:30;5.40;;;5.10;;
57573;SDS011;68988;49.000;21.242;2024-01-10T03:24:57;5.25;;;4.72;;
57573;SDS011;68988;49.000;21.242;2024-01-10T03:27:22;4.97;;;4.57;;
57573;SDS011;68988;49.000;21.242;2024-01-10T03:29:48;4.80;;;4.60;;
57573;SDS011;68988;49.000;21.242;2024-01-10T03:32:13;5.10;;;4.70;;
57573;SDS011;68988;49.000;21.242;2024-01-10T03:34:38;5.35;;;5.05;;
57573;SDS011;68988;49.000;21.242;2024-01-10T03:37:06;5.00;;;4.70;;
57573;SDS011;68988;49.000;21.242;2024-01-10T03:39:31;5.18;;;4.88;;
57573;SDS011;68988;49.000;21.242;2024-01-10T03:41:56;5.20;;;4.90;;
57573;SDS011;68988;49.000;21.242;2024-01-10T03:44:22;5.07;;;4.78;;
57573;SDS011;68988;49.000;21.242;2024-01-10T03:46:47;7.38;;;5.13;;
57573;SDS011;68988;49.000;21.242;2024-01-10T03:49:13;4.97;;;4.68;;
57573;SDS011;68988;49.000;21.242;2024-01-10T03:51:38;5.18;;;4.88;;
57573;SDS011;68988;49.000;21.242;2024-01-10T03:54:05;4.50;;;4.30;;
57573;SDS011;68988;49.000;21.242;2024-01-10T03:56:30;5.38;;;5.07;;
57573;SDS011;68988;49.000;21.242;2024-01-10T03:58:56;5.10;;;4.80;;
57573;SDS011;68988;49.000;21.242;2024-01-10T04:01:22;4.78;;;4.38;;
57573;SDS011;68988;49.000;21.242;2024-01-10T04:03:48;5.78;;;5.35;;
57573;SDS011;68988;49.000;21.242;2024-01-10T04:06:13;4.78;;;4.57;;
57573;SDS011;68988;49.000;21.242;2024-01-10T04:08:39;5.32;;;4.82;;
57573;SDS011;68988;49.000;21.242;2024-01-10T04:11:04;5.32;;;4.93;;
57573;SDS011;68988;49.000;21.242;2024-01-10T04:13:30;5.35;;;5.05;;
57573;SDS011;68988;49.000;21.242;2024-01-10T04:15:55;4.82;;;4.53;;
57573;SDS011;68988;49.000;21.242;2024-01-10T04:18:20;5.32;;;5.03;;
57573;SDS011;68988;49.000;21.242;2024-01-10T04:20:46;4.95;;;4.65;;
57573;SDS011;68988;49.000;21.242;2024-01-10T04:23:15;5.38;;;5.07;;
57573;SDS011;68988;49.000;21.242;2024-01-10T04:25:40;5.07;;;4.78;;
57573;SDS011;68988;49.000;21.242;2024-01-10T04:28:05;5.20;;;4.90;;
57573;SDS011;68988;49.000;21.242;2024-01-10T04:30:31;4.90;;;4.60;;
57573;SDS011;68988;49.000;21.242;2024-01-10T04:32:56;5.18;;;4.88;;
57573;SDS011;68988;49.000;21.242;2024-01-10T04:35:21;5.38;;;4.97;;
57573;SDS011;68988;49.000;21.242;2024-01-10T04:37:47;4.72;;;4.53;;
57573;SDS011;68988;49.000;21.242;2024-01-10T04:40:12;5.35;;;4.80;;
57573;SDS011;68988;49.000;21.242;2024-01-10T04:42:37;5.68;;;5.28;;
57573;SDS011;68988;49.000;21.242;2024-01-10T04:45:03;4.82;;;4.60;;
57573;SDS011;68988;49.000;21.242;2024-01-10T04:47:29;5.10;;;4.80;;
57573;SDS011;68988;49.000;21.242;2024-01-10T04:49:54;5.25;;;4.95;;
57573;SDS011;68988;49.000;21.242;2024-01-10T04:52:19;5.38;;;5.07;;
57573;SDS011;68988;49.000;21.242;2024-01-10T04:54:45;5.15;;;4.85;;
57573;SDS011;68988;49.000;21.242;2024-01-10T04:57:10;7.00;;;5.47;;
57573;SDS011;68988;49.000;21.242;2024-01-10T04:59:35;5.28;;;4.88;;
57573;SDS011;68988;49.000;21.242;2024-01-10T05:02:01;5.30;;;5.00;;
57573;SDS011;68988;49.000;21.242;2024-01-10T05:04:26;5.07;;;4.75;;
57573;SDS011;68988;49.000;21.242;2024-01-10T05:06:51;4.88;;;4.60;;
57573;SDS011;68988;49.000;21.242;2024-01-10T05:09:17;5.55;;;5.13;;
57573;SDS011;68988;49.000;21.242;2024-01-10T05:11:42;4.72;;;4.43;;
57573;SDS011;68988;49.000;21.242;2024-01-10T05:14:08;5.47;;;5.18;;
57573;SDS011;68988;49.000;21.242;2024-01-10T05:16:33;5.55;;;5.18;;
57573;SDS011;68988;49.000;21.242;2024-01-10T05:19:00;5.22;;;4.93;;
57573;SDS011;68988;49.000;21.242;2024-01-10T05:21:28;5.50;;;5.20;;
57573;SDS011;68988;49.000;21.242;2024-01-10T05:23:55;5.68;;;5.38;;
57573;SDS011;68988;49.000;21.242;2024-01-10T05:26:20;5.35;;;4.88;;
57573;SDS011;68988;49.000;21.242;2024-01-10T05:28:45;4.97;;;4.68;;
57573;SDS011;68988;49.000;21.242;2024-01-10T05:31:11;5.53;;;5.13;;
57573;SDS011;68988;49.000;21.242;2024-01-10T05:33:36;5.00;;;4.57;;
57573;SDS011;68988;49.000;21.242;2024-01-10T05:36:02;6.38;;;5.22;;
57573;SDS011;68988;49.000;21.242;2024-01-10T05:38:28;4.97;;;4.75;;
57573;SDS011;68988;49.000;21.242;2024-01-10T05:40:53;5.20;;;4.90;;
57573;SDS011;68988;49.000;21.242;2024-01-10T05:43:18;5.15;;;4.95;;
57573;SDS011;68988;49.000;21.242;2024-01-10T05:45:44;4.93;;;4.65;;
57573;SDS011;68988;49.000;21.242;2024-01-10T05:48:09;5.03;;;4.72;;
57573;SDS011;68988;49.000;21.242;2024-01-10T05:50:34;5.25;;;4.85;;
57573;SDS011;68988;49.000;21.242;2024-01-10T05:53:00;34.00;;;16.55;;
57573;SDS011;68988;49.000;21.242;2024-01-10T05:55:25;28.13;;;16.17;;
57573;SDS011;68988;49.000;21.242;2024-01-10T05:57:50;20.02;;;14.43;;
57573;SDS011;68988;49.000;21.242;2024-01-10T06:00:16;15.23;;;12.95;;
57573;SDS011;68988;49.000;21.242;2024-01-10T06:02:41;15.32;;;12.38;;
57573;SDS011;68988;49.000;21.242;2024-01-10T06:05:08;13.40;;;12.07;;
57573;SDS011;68988;49.000;21.242;2024-01-10T06:07:34;13.02;;;11.75;;
57573;SDS011;68988;49.000;21.242;2024-01-10T06:10:00;17.38;;;12.38;;
57573;SDS011;68988;49.000;21.242;2024-01-10T06:12:26;12.93;;;11.15;;
57573;SDS011;68988;49.000;21.242;2024-01-10T06:14:52;14.65;;;11.07;;
57573;SDS011;68988;49.000;21.242;2024-01-10T06:17:17;12.18;;;11.02;;
57573;SDS011;68988;49.000;21.242;2024-01-10T06:19:44;14.55;;;10.88;;
57573;SDS011;68988;49.000;21.242;2024-01-10T06:22:09;11.48;;;10.27;;
57573;SDS011;68988;49.000;21.242;2024-01-10T06:24:36;11.40;;;10.32;;
57573;SDS011;68988;49.000;21.242;2024-01-10T06:27:02;11.27;;;10.27;;
57573;SDS011;68988;49.000;21.242;2024-01-10T06:29:29;10.70;;;9.82;;
57573;SDS011;68988;49.000;21.242;2024-01-10T06:31:54;11.15;;;10.10;;
57573;SDS011;68988;49.000;21.242;2024-01-10T06:34:21;14.30;;;11.23;;
57573;SDS011;68988;49.000;21.242;2024-01-10T06:36:47;11.25;;;9.75;;
57573;SDS011;68988;49.000;21.242;2024-01-10T06:39:12;11.35;;;10.18;;
57573;SDS011;68988;49.000;21.242;2024-01-10T06:41:38;11.35;;;10.25;;
57573;SDS011;68988;49.000;21.242;2024-01-10T06:44:04;10.18;;;9.30;;
57573;SDS011;68988;49.000;21.242;2024-01-10T06:46:30;10.32;;;9.38;;
57573;SDS011;68988;49.000;21.242;2024-01-10T06:48:56;14.98;;;9.18;;
57573;SDS011;68988;49.000;21.242;2024-01-10T06:51:22;11.15;;;9.88;;
57573;SDS011;68988;49.000;21.242;2024-01-10T06:53:48;10.60;;;9.80;;
57573;SDS011;68988;49.000;21.242;2024-01-10T06:56:13;9.80;;;8.90;;
57573;SDS011;68988;49.000;21.242;2024-01-10T06:58:39;10.05;;;9.15;;
57573;SDS011;68988;49.000;21.242;2024-01-10T07:01:05;10.35;;;9.43;;
57573;SDS011;68988;49.000;21.242;2024-01-10T07:03:31;12.15;;;9.15;;
57573;SDS011;68988;49.000;21.242;2024-01-10T07:05:57;10.07;;;9.20;;
57573;SDS011;68988;49.000;21.242;2024-01-10T07:08:24;10.35;;;9.30;;
57573;SDS011;68988;49.000;21.242;2024-01-10T07:10:51;10.75;;;8.80;;
57573;SDS011;68988;49.000;21.242;2024-01-10T07:13:16;9.38;;;8.57;;
57573;SDS011;68988;49.000;21.242;2024-01-10T07:15:42;11.88;;;9.27;;
57573;SDS011;68988;49.000;21.242;2024-01-10T07:18:07;9.05;;;8.25;;
57573;SDS011;68988;49.000;21.242;2024-01-10T07:20:32;9.05;;;8.35;;
57573;SDS011;68988;49.000;21.242;2024-01-10T07:22:58;10.15;;;9.20;;
57573;SDS011;68988;49.000;21.242;2024-01-10T07:25:24;8.98;;;8.18;;
57573;SDS011;68988;49.000;21.242;2024-01-10T07:27:50;9.60;;;8.80;;
57573;SDS011;68988;49.000;21.242;2024-01-10T07:30:18;9.13;;;8.30;;
57573;SDS011;68988;49.000;21.242;2024-01-10T07:32:44;13.20;;;8.20;;
57573;SDS011;68988;49.000;21.242;2024-01-10T07:35:11;9.70;;;8.70;;
57573;SDS011;68988;49.000;21.242;2024-01-10T07:37:37;8.98;;;8.27;;
57573;SDS011;68988;49.000;21.242;2024-01-10T07:40:03;10.07;;;8.15;;
57573;SDS011;68988;49.000;21.242;2024-01-10T07:42:35;9.13;;;7.97;;
57573;SDS011;68988;49.000;21.242;2024-01-10T07:45:02;11.90;;;8.52;;
57573;SDS011;68988;49.000;21.242;2024-01-10T07:47:31;9.05;;;8.35;;
57573;SDS011;68988;49.000;21.242;2024-01-10T07:49:57;8.82;;;8.10;;
57573;SDS011;68988;49.000;21.242;2024-01-10T07:52:25;8.60;;;7.90;;
57573;SDS011;68988;49.000;21.242;2024-01-10T07:54:50;10.60;;;8.13;;
57573;SDS011;68988;49.000;21.242;2024-01-10T07:57:16;8.95;;;7.72;;
57573;SDS011;68988;49.000;21.242;2024-01-10T07:59:43;11.32;;;7.88;;
57573;SDS011;68988;49.000;21.242;2024-01-10T08:02:09;11.80;;;7.97;;
57573;SDS011;68988;49.000;21.242;2024-01-10T08:04:35;13.43;;;7.28;;
57573;SDS011;68988;49.000;21.242;2024-01-10T08:07:00;8.10;;;7.45;;
57573;SDS011;68988;49.000;21.242;2024-01-10T08:09:26;7.97;;;7.30;;
57573;SDS011;68988;49.000;21.242;2024-01-10T08:11:51;8.13;;;7.32;;
57573;SDS011;68988;49.000;21.242;2024-01-10T08:14:16;12.32;;;7.70;;
57573;SDS011;68988;49.000;21.242;2024-01-10T08:16:42;8.55;;;7.68;;
57573;SDS011;68988;49.000;21.242;2024-01-10T08:19:07;7.78;;;6.70;;
57573;SDS011;68988;49.000;21.242;2024-01-10T08:21:33;10.07;;;7.50;;
57573;SDS011;68988;49.000;21.242;2024-01-10T08:23:59;8.00;;;7.43;;
57573;SDS011;68988;49.000;21.242;2024-01-10T08:26:26;9.05;;;6.80;;
57573;SDS011;68988;49.000;21.242;2024-01-10T08:28:52;8.30;;;7.28;;
57573;SDS011;68988;49.000;21.242;2024-01-10T08:31:17;9.55;;;7.10;;
57573;SDS011;68988;49.000;21.242;2024-01-10T08:33:43;10.38;;;7.05;;
57573;SDS011;68988;49.000;21.242;2024-01-10T08:36:08;8.07;;;7.38;;
57573;SDS011;68988;49.000;21.242;2024-01-10T08:38:35;8.18;;;7.35;;
57573;SDS011;68988;49.000;21.242;2024-01-10T08:41:01;10.38;;;7.07;;
57573;SDS011;68988;49.000;21.242;2024-01-10T08:43:26;8.77;;;6.68;;
57573;SDS011;68988;49.000;21.242;2024-01-10T08:45:52;7.75;;;7.15;;
57573;SDS011;68988;49.000;21.242;2024-01-10T08:48:17;9.20;;;7.18;;
57573;SDS011;68988;49.000;21.242;2024-01-10T08:50:42;9.43;;;6.90;;
57573;SDS011;68988;49.000;21.242;2024-01-10T08:53:09;7.15;;;6.55;;
57573;SDS011;68988;49.000;21.242;2024-01-10T08:55:35;8.18;;;7.35;;
57573;SDS011;68988;49.000;21.242;2024-01-10T08:58:02;7.80;;;7.13;;
57573;SDS011;68988;49.000;21.242;2024-01-10T09:00:30;10.02;;;7.05;;
57573;SDS011;68988;49.000;21.242;2024-01-10T09:02:56;7.32;;;6.40;;
57573;SDS011;68988;49.000;21.242;2024-01-10T09:05:21;7.63;;;6.78;;
57573;SDS011;68988;49.000;21.242;2024-01-10T09:07:47;7.60;;;6.85;;
57573;SDS011;68988;49.000;21.242;2024-01-10T09:10:13;16.67;;;7.10;;
57573;SDS011;68988;49.000;21.242;2024-01-10T09:12:38;15.80;;;7.07;;
57573;SDS011;68988;49.000;21.242;2024-01-10T09:15:04;10.48;;;7.20;;
57573;SDS011;68988;49.000;21.242;2024-01-10T09:17:33;15.27;;;7.07;;
57573;SDS011;68988;49.000;21.242;2024-01-10T09:19:58;11.98;;;6.97;;
57573;SDS011;68988;49.000;21.242;2024-01-10T09:22:23;15.82;;;7.45;;
57573;SDS011;68988;49.000;21.242;2024-01-10T09:24:49;15.05;;;6.95;;
57573;SDS011;68988;49.000;21.242;2024-01-10T09:27:14;12.93;;;6.93;;
57573;SDS011;68988;49.000;21.242;2024-01-10T09:29:40;18.15;;;6.93;;
57573;SDS011;68988;49.000;21.242;2024-01-10T09:32:05;18.05;;;6.38;;
57573;SDS011;68988;49.000;21.242;2024-01-10T09:34:30;7.38;;;6.68;;
57573;SDS011;68988;49.000;21.242;2024-01-10T09:36:57;14.35;;;6.90;;
57573;SDS011;68988;49.000;21.242;2024-01-10T09:39:22;7.30;;;6.60;;
57573;SDS011;68988;49.000;21.242;2024-01-10T09:41:48;7.60;;;6.90;;
57573;SDS011;68988;49.000;21.242;2024-01-10T09:44:16;9.77;;;6.85;;
57573;SDS011;68988;49.000;21.242;2024-01-10T09:46:43;7.22;;;6.38;;
57573;SDS011;68988;49.000;21.242;2024-01-10T09:49:12;10.55;;;6.75;;
57573;SDS011;68988;49.000;21.242;2024-01-10T09:51:38;7.07;;;6.38;;
57573;SDS011;68988;49.000;21.242;2024-01-10T09:54:04;7.20;;;6.15;;
57573;SDS011;68988;49.000;21.242;2024-01-10T09:56:30;11.05;;;6.10;;
57573;SDS011;68988;49.000;21.242;2024-01-10T09:58:58;7.05;;;6.50;;
57573;SDS011;68988;49.000;21.242;2024-01-10T10:01:23;8.50;;;6.35;;
57573;SDS011;68988;49.000;21.242;2024-01-10T10:03:50;6.93;;;6.35;;
57573;SDS011;68988;49.000;21.242;2024-01-10T10:06:16;8.73;;;6.50;;
57573;SDS011;68988;49.000;21.242;2024-01-10T10:08:41;10.93;;;6.25;;
57573;SDS011;68988;49.000;21.242;2024-01-10T10:11:07;7.15;;;6.60;;
57573;SDS011;68988;49.000;21.242;2024-01-10T10:13:37;7.45;;;6.03;;
57573;SDS011;68988;49.000;21.242;2024-01-10T10:16:06;7.13;;;6.03;;
57573;SDS011;68988;49.000;21.242;2024-01-10T10:18:33;17.20;;;5.80;;
57573;SDS011;68988;49.000;21.242;2024-01-10T10:21:12;6.40;;;5.90;;
57573;SDS011;68988;49.000;21.242;2024-01-10T10:23:39;9.02;;;5.57;;
57573;SDS011;68988;49.000;21.242;2024-01-10T10:26:16;9.68;;;6.18;;
57573;SDS011;68988;49.000;21.242;2024-01-10T10:28:48;6.63;;;5.80;;
57573;SDS011;68988;49.000;21.242;2024-01-10T10:31:18;8.85;;;6.05;;
57573;SDS011;68988;49.000;21.242;2024-01-10T10:33:44;9.85;;;6.25;;
57573;SDS011;68988;49.000;21.242;2024-01-10T10:36:11;8.20;;;6.10;;
57573;SDS011;68988;49.000;21.242;2024-01-10T10:38:39;9.05;;;6.45;;
57573;SDS011;68988;49.000;21.242;2024-01-10T10:41:05;7.05;;;6.05;;
57573;SDS011;68988;49.000;21.242;2024-01-10T10:43:38;11.80;;;5.22;;
57573;SDS011;68988;49.000;21.242;2024-01-10T10:46:05;7.40;;;5.57;;
57573;SDS011;68988;49.000;21.242;2024-01-10T10:48:34;8.30;;;5.97;;
57573;SDS011;68988;49.000;21.242;2024-01-10T10:51:04;6.90;;;5.72;;
57573;SDS011;68988;49.000;21.242;2024-01-10T10:53:32;9.43;;;5.43;;
57573;SDS011;68988;49.000;21.242;2024-01-10T10:56:00;8.77;;;6.30;;
57573;SDS011;68988;49.000;21.242;2024-01-10T10:58:28;6.20;;;5.47;;
57573;SDS011;68988;49.000;21.242;2024-01-10T11:00:53;10.43;;;6.28;;
57573;SDS011;68988;49.000;21.242;2024-01-10T11:03:21;10.60;;;6.22;;
57573;SDS011;68988;49.000;21.242;2024-01-10T11:05:47;6.40;;;5.82;;
57573;SDS011;68988;49.000;21.242;2024-01-10T11:08:14;9.70;;;5.75;;
57573;SDS011;68988;49.000;21.242;2024-01-10T11:10:44;7.00;;;5.78;;
57573;SDS011;68988;49.000;21.242;2024-01-10T11:13:17;6.78;;;6.05;;
57573;SDS011;68988;49.000;21.242;2024-01-10T11:21:43;16.70;;;5.35;;
57573;SDS011;68988;49.000;21.242;2024-01-10T11:24:33;7.07;;;6.38;;
57573;SDS011;68988;49.000;21.242;2024-01-10T11:27:15;10.15;;;6.15;;
57573;SDS011;68988;49.000;21.242;2024-01-10T11:29:41;7.65;;;6.30;;
57573;SDS011;68988;49.000;21.242;2024-01-10T11:32:12;12.98;;;6.05;;
57573;SDS011;68988;49.000;21.242;2024-01-10T11:34:48;10.70;;;6.30;;
57573;SDS011;68988;49.000;21.242;2024-01-10T11:37:15;11.52;;;5.85;;
57573;SDS011;68988;49.000;21.242;2024-01-10T11:39:43;9.82;;;5.30;;
57573;SDS011;68988;49.000;21.242;2024-01-10T11:42:09;7.20;;;5.55;;
57573;SDS011;68988;49.000;21.242;2024-01-10T11:44:35;7.32;;;5.70;;
57573;SDS011;68988;49.000;21.242;2024-01-10T11:47:12;7.03;;;5.47;;
57573;SDS011;68988;49.000;21.242;2024-01-10T11:49:39;7.70;;;5.90;;
57573;SDS011;68988;49.000;21.242;2024-01-10T11:52:05;21.17;;;6.43;;
57573;SDS011;68988;49.000;21.242;2024-01-10T11:54:40;8.73;;;5.90;;
57573;SDS011;68988;49.000;21.242;2024-01-10T11:57:20;8.00;;;6.20;;
57573;SDS011;68988;49.000;21.242;2024-01-10T11:59:50;11.32;;;6.20;;
57573;SDS011;68988;49.000;21.242;2024-01-10T12:02:16;11.48;;;6.05;;
57573;SDS011;68988;49.000;21.242;2024-01-10T12:04:43;7.55;;;6.00;;
57573;SDS011;68988;49.000;21.242;2024-01-10T12:07:10;8.45;;;5.60;;
57573;SDS011;68988;49.000;21.242;2024-01-10T12:09:36;9.15;;;6.10;;
57573;SDS011;68988;49.000;21.242;2024-01-10T12:12:02;8.20;;;5.35;;
57573;SDS011;68988;49.000;21.242;2024-01-10T12:14:28;7.43;;;5.72;;
57573;SDS011;68988;49.000;21.242;2024-01-10T12:16:54;7.95;;;6.05;;
57573;SDS011;68988;49.000;21.242;2024-01-10T12:19:19;8.52;;;5.13;;
57573;SDS011;68988;49.000;21.242;2024-01-10T12:21:45;6.32;;;5.72;;
57573;SDS011;68988;49.000;21.242;2024-01-10T12:24:10;10.88;;;5.68;;
57573;SDS011;68988;49.000;21.242;2024-01-10T12:26:36;5.80;;;5.28;;
57573;SDS011;68988;49.000;21.242;2024-01-10T12:29:08;9.55;;;6.00;;
57573;SDS011;68988;49.000;21.242;2024-01-10T12:31:33;7.72;;;5.13;;
57573;SDS011;68988;49.000;21.242;2024-01-10T12:33:59;5.90;;;5.40;;
57573;SDS011;68988;49.000;21.242;2024-01-10T12:36:24;11.60;;;5.78;;
57573;SDS011;68988;49.000;21.242;2024-01-10T12:38:50;6.30;;;5.80;;
57573;SDS011;68988;49.000;21.242;2024-01-10T12:41:17;14.15;;;5.43;;
57573;SDS011;68988;49.000;21.242;2024-01-10T12:43:48;6.38;;;5.28;;
57573;SDS011;68988;49.000;21.242;2024-01-10T12:46:20;5.93;;;5.22;;
57573;SDS011;68988;49.000;21.242;2024-01-10T12:48:49;6.65;;;5.30;;
57573;SDS011;68988;49.000;21.242;2024-01-10T12:51:24;10.70;;;5.82;;
57573;SDS011;68988;49.000;21.242;2024-01-10T12:53:49;8.80;;;5.55;;
57573;SDS011;68988;49.000;21.242;2024-01-10T12:56:14;9.43;;;5.47;;
57573;SDS011;68988;49.000;21.242;2024-01-10T12:58:40;5.70;;;5.07;;
57573;SDS011;68988;49.000;21.242;2024-01-10T13:01:09;6.38;;;5.43;;
57573;SDS011;68988;49.000;21.242;2024-01-10T13:03:36;9.20;;;5.13;;
57573;SDS011;68988;49.000;21.242;2024-01-10T13:06:03;10.52;;;5.88;;
57573;SDS011;68988;49.000;21.242;2024-01-10T13:08:30;9.55;;;5.63;;
57573;SDS011;68988;49.000;21.242;2024-01-10T13:10:56;6.22;;;5.18;;
57573;SDS011;68988;49.000;21.242;2024-01-10T13:13:22;7.32;;;5.65;;
57573;SDS011;68988;49.000;21.242;2024-01-10T13:15:47;10.73;;;5.50;;
57573;SDS011;68988;49.000;21.242;2024-01-10T13:18:14;6.80;;;5.35;;
57573;SDS011;68988;49.000;21.242;2024-01-10T13:20:40;7.43;;;5.05;;
57573;SDS011;68988;49.000;21.242;2024-01-10T13:23:06;6.18;;;5.57;;
57573;SDS011;68988;49.000;21.242;2024-01-10T13:25:32;6.72;;;5.30;;
57573;SDS011;68988;49.000;21.242;2024-01-10T13:27:58;7.70;;;4.72;;
57573;SDS011;68988;49.000;21.242;2024-01-10T13:30:24;58.13;;;7.50;;
57573;SDS011;68988;49.000;21.242;2024-01-10T13:32:50;7.78;;;5.22;;
57573;SDS011;68988;49.000;21.242;2024-01-10T13:35:15;6.57;;;4.95;;
57573;SDS011;68988;49.000;21.242;2024-01-10T13:37:44;9.60;;;5.22;;
57573;SDS011;68988;49.000;21.242;2024-01-10T13:40:12;9.35;;;5.03;;
57573;SDS011;68988;49.000;21.242;2024-01-10T13:42:38;7.03;;;5.32;;
57573;SDS011;68988;49.000;21.242;2024-01-10T13:45:07;10.40;;;5.25;;
57573;SDS011;68988;49.000;21.242;2024-01-10T13:47:37;7.32;;;5.20;;
57573;SDS011;68988;49.000;21.242;2024-01-10T13:50:03;6.15;;;4.70;;
57573;SDS011;68988;49.000;21.242;2024-01-10T13:52:30;5.32;;;4.88;;
57573;SDS011;68988;49.000;21.242;2024-01-10T13:54:56;6.10;;;5.32;;
57573;SDS011;68988;49.000;21.242;2024-01-10T13:57:21;5.72;;;5.20;;
57573;SDS011;68988;49.000;21.242;2024-01-10T13:59:47;12.65;;;5.38;;
57573;SDS011;68988;49.000;21.242;2024-01-10T14:02:12;8.82;;;4.75;;
57573;SDS011;68988;49.000;21.242;2024-01-10T14:04:38;12.07;;;5.10;;
57573;SDS011;68988;49.000;21.242;2024-01-10T14:07:04;9.85;;;4.95;;
57573;SDS011;68988;49.000;21.242;2024-01-10T14:09:30;5.35;;;4.85;;
57573;SDS011;68988;49.000;21.242;2024-01-10T14:11:55;5.40;;;4.95;;
57573;SDS011;68988;49.000;21.242;2024-01-10T14:14:21;5.63;;;4.97;;
57573;SDS011;68988;49.000;21.242;2024-01-10T14:16:46;12.88;;;5.10;;
57573;SDS011;68988;49.000;21.242;2024-01-10T14:19:11;13.98;;;5.57;;
57573;SDS011;68988;49.000;21.242;2024-01-10T14:21:37;5.32;;;4.78;;
57573;SDS011;68988;49.000;21.242;2024-01-10T14:24:02;8.35;;;5.03;;
57573;SDS011;68988;49.000;21.242;2024-01-10T14:26:28;5.35;;;4.85;;
57573;SDS011;68988;49.000;21.242;2024-01-10T14:28:53;6.93;;;4.85;;
57573;SDS011;68988;49.000;21.242;2024-01-10T14:31:21;14.07;;;4.80;;
57573;SDS011;68988;49.000;21.242;2024-01-10T14:33:46;8.90;;;5.32;;
57573;SDS011;68988;49.000;21.242;2024-01-10T14:36:12;5.25;;;4.85;;
57573;SDS011;68988;49.000;21.242;2024-01-10T14:38:38;7.68;;;5.28;;